^^
Saratoga-Weather Station Historical Data
Daily Summary for May 09, 2021 Units:  English    Metric   Both
Daily Weekly Monthly Yearly Custom
  High: Low: Average:
Temperature: 76.8 °F 46.9 °F 56.5 °F
Dew Point: 57.4 °F 45.5 °F 50 °F
Humidity: 97% 46% 82%
Wind Speed: 11mph 0mph 1.1mph
Wind Gust: 16mph - -
Wind- - SSE
Pressure: 29.8 in 29.7 in -
Precipitation: 0 in    
Historical Graphs
 
 
Tabular Data for May 09, 2021
Time Temperature Dew Point Pressure Wind Wind Speed Wind Gust Humidity Rainfall Rate (Hourly) solar
01:37 49.5 °F 47.5 °F 29.8 in Calm     93% 0 in 0 W/m2
01:42 49.3 °F 47.3 °F 29.8 in Calm     93% 0 in 0 W/m2
01:47 49.3 °F 47.3 °F 29.8 in Calm     93% 0 in 0 W/m2
01:52 48.9 °F 46.9 °F 29.8 in Calm     93% 0 in 0 W/m2
01:57 48.9 °F 46.9 °F 29.8 in Calm     93% 0 in 0 W/m2
02:02 48.9 °F 46.9 °F 29.8 in East 2 mph 2 mph 93% 0 in 0 W/m2
02:07 48.7 °F 46.8 °F 29.8 in Calm     93% 0 in 0 W/m2
02:12 48.9 °F 47.3 °F 29.8 in ESE 2 mph 3 mph 94% 0 in 0 W/m2
02:17 49.5 °F 48 °F 29.8 in Calm     95% 0 in 0 W/m2
02:22 49.6 °F 48.2 °F 29.8 in Calm   3 mph 95% 0 in 0 W/m2
02:27 49.8 °F 48.2 °F 29.8 in Calm     94% 0 in 0 W/m2
02:32 49.8 °F 48.2 °F 29.8 in Calm     94% 0 in 0 W/m2
02:37 49.6 °F 48 °F 29.8 in Calm     94% 0 in 0 W/m2
02:42 49.5 °F 47.8 °F 29.8 in Calm     94% 0 in 0 W/m2
02:47 49.5 °F 47.8 °F 29.8 in Calm     94% 0 in 0 W/m2
02:52 49.3 °F 47.7 °F 29.8 in Calm     94% 0 in 0 W/m2
02:57 48.9 °F 47.3 °F 29.8 in Calm     94% 0 in 0 W/m2
03:02 48.7 °F 47.1 °F 29.8 in Calm     94% 0 in 0 W/m2
03:07 48.7 °F 47.1 °F 29.8 in Calm     94% 0 in 0 W/m2
03:12 48.6 °F 46.9 °F 29.8 in Calm     94% 0 in 0 W/m2
03:17 48.6 °F 46.9 °F 29.8 in Calm     94% 0 in 0 W/m2
03:22 48.6 °F 46.9 °F 29.8 in Calm     94% 0 in 0 W/m2
03:27 48.4 °F 46.8 °F 29.8 in Calm     94% 0 in 0 W/m2
03:32 48.4 °F 46.8 °F 29.8 in Calm     94% 0 in 0 W/m2
03:37 48.2 °F 46.6 °F 29.8 in Calm     94% 0 in 0 W/m2
03:42 48 °F 46.4 °F 29.8 in Calm     94% 0 in 0 W/m2
03:47 48 °F 46.6 °F 29.8 in Calm     95% 0 in 0 W/m2
03:52 48 °F 46.6 °F 29.8 in Calm     95% 0 in 0 W/m2
03:57 48 °F 46.6 °F 29.8 in Calm     95% 0 in 0 W/m2
04:02 47.8 °F 46.2 °F 29.8 in Calm     94% 0 in 0 W/m2
04:07 47.8 °F 46.4 °F 29.8 in Calm     95% 0 in 0 W/m2
04:12 47.8 °F 46.4 °F 29.8 in Calm     95% 0 in 0 W/m2
04:17 47.8 °F 46.4 °F 29.8 in Calm     95% 0 in 0 W/m2
04:22 47.7 °F 46.2 °F 29.8 in Calm     95% 0 in 0 W/m2
04:27 47.7 °F 46.2 °F 29.8 in Calm     95% 0 in 0 W/m2
04:32 47.5 °F 46 °F 29.8 in Calm     95% 0 in 0 W/m2
04:37 47.5 °F 46 °F 29.8 in Calm     95% 0 in 0 W/m2
04:42 47.3 °F 45.9 °F 29.7 in Calm     95% 0 in 0 W/m2
04:47 47.1 °F 45.7 °F 29.7 in Calm     95% 0 in 0 W/m2
04:52 47.1 °F 45.7 °F 29.7 in Calm     95% 0 in 0 W/m2
04:57 46.9 °F 45.5 °F 29.7 in Calm     95% 0 in 0 W/m2
05:02 46.9 °F 45.5 °F 29.7 in Calm     95% 0 in 0 W/m2
05:07 46.9 °F 45.5 °F 29.7 in Calm     95% 0 in 0 W/m2
05:12 46.9 °F 45.5 °F 29.7 in Calm     95% 0 in 0 W/m2
05:17 46.9 °F 45.5 °F 29.7 in Calm     95% 0 in 0 W/m2
05:22 46.9 °F 45.5 °F 29.7 in Calm     95% 0 in 0 W/m2
05:27 46.9 °F 45.5 °F 29.7 in Calm     95% 0 in 0 W/m2
05:32 47.1 °F 45.7 °F 29.7 in Calm     95% 0 in 0 W/m2
05:37 47.1 °F 45.7 °F 29.7 in Calm     95% 0 in 0 W/m2
05:42 47.1 °F 46 °F 29.7 in Calm     96% 0 in 0 W/m2
05:47 47.1 °F 45.7 °F 29.7 in Calm     95% 0 in 0 W/m2
05:52 47.1 °F 45.7 °F 29.7 in Calm     95% 0 in 0 W/m2
05:57 47.1 °F 45.7 °F 29.7 in Calm     95% 0 in 0 W/m2
06:02 47.1 °F 45.7 °F 29.7 in Calm     95% 0 in 0 W/m2
06:07 46.9 °F 45.5 °F 29.7 in Calm     95% 0 in 0 W/m2
06:12 46.9 °F 45.5 °F 29.7 in Calm     95% 0 in 5 W/m2
06:17 46.9 °F 45.9 °F 29.7 in Calm     96% 0 in 5 W/m2
06:22 47.1 °F 46 °F 29.7 in Calm     96% 0 in 7 W/m2
06:27 46.9 °F 45.5 °F 29.7 in Calm     95% 0 in 9 W/m2
06:32 46.9 °F 45.5 °F 29.7 in Calm     95% 0 in 12 W/m2
06:37 46.9 °F 45.9 °F 29.7 in Calm     96% 0 in 16 W/m2
06:42 47.1 °F 46 °F 29.7 in Calm     96% 0 in 19 W/m2
06:47 47.1 °F 46 °F 29.7 in Calm     96% 0 in 23 W/m2
06:52 47.1 °F 46 °F 29.7 in Calm     96% 0 in 26 W/m2
06:57 47.5 °F 46.4 °F 29.7 in Calm     96% 0 in 28 W/m2
07:02 47.7 °F 46.6 °F 29.7 in Calm     96% 0 in 32 W/m2
07:07 48 °F 46.9 °F 29.7 in ESE 2 mph 2 mph 96% 0 in 33 W/m2
07:12 48.6 °F 47.5 °F 29.7 in ESE 0.9 mph 2 mph 96% 0 in 39 W/m2
07:17 48.7 °F 47.7 °F 29.7 in Calm     96% 0 in 40 W/m2
07:22 48.9 °F 47.8 °F 29.7 in Calm   2 mph 96% 0 in 42 W/m2
07:27 48.9 °F 47.8 °F 29.7 in Calm     96% 0 in 44 W/m2
07:32 49.1 °F 48 °F 29.7 in Calm     96% 0 in 42 W/m2
07:37 49.5 °F 48.4 °F 29.7 in Calm     96% 0 in 44 W/m2
07:42 49.6 °F 48.6 °F 29.7 in Calm     96% 0 in 56 W/m2
07:47 49.8 °F 48.7 °F 29.7 in Calm     96% 0 in 53 W/m2
07:52 50.2 °F 49.3 °F 29.7 in Calm   2 mph 97% 0 in 58 W/m2
07:57 50.5 °F 49.5 °F 29.7 in Calm     96% 0 in 62 W/m2
08:02 51.3 °F 50.4 °F 29.7 in Calm   2 mph 97% 0 in 62 W/m2
08:07 51.6 °F 50.7 °F 29.7 in Calm   1 mph 97% 0 in 56 W/m2
08:12 52.2 °F 51.1 °F 29.7 in Calm   1 mph 96% 0 in 56 W/m2
08:17 53.2 °F 51.8 °F 29.7 in NE 0.9 mph 2 mph 95% 0 in 54 W/m2
08:22 54.1 °F 52.2 °F 29.7 in NE 0.9 mph 2 mph 93% 0 in 60 W/m2
08:27 55.2 °F 52.7 °F 29.7 in Calm   2 mph 91% 0 in 63 W/m2
08:32 55.9 °F 52.5 °F 29.7 in ENE 2 mph 2 mph 88% 0 in 74 W/m2
08:37 56.8 °F 52.7 °F 29.7 in Calm   2 mph 86% 0 in 97 W/m2
08:42 57.7 °F 52.9 °F 29.7 in NE 0.9 mph 3 mph 84% 0 in 188 W/m2
08:47 58.5 °F 52.7 °F 29.7 in NE 0.9 mph 2 mph 81% 0 in 264 W/m2
08:52 58.6 °F 52.5 °F 29.7 in ENE 2 mph 2 mph 80% 0 in 158 W/m2
08:57 58.8 °F 52.7 °F 29.7 in ENE 0.9 mph 2 mph 80% 0 in 227 W/m2
09:02 59.2 °F 52.7 °F 29.7 in ENE 2.9 mph 3 mph 79% 0 in 297 W/m2
09:07 59.4 °F 52.9 °F 29.7 in Calm   3 mph 79% 0 in 216 W/m2
09:12 59.5 °F 53.1 °F 29.7 in ENE 0.9 mph 3 mph 79% 0 in 239 W/m2
09:17 59.7 °F 53.2 °F 29.7 in Calm   2 mph 79% 0 in 309 W/m2
09:22 60.1 °F 53.6 °F 29.7 in Calm   3 mph 79% 0 in 452 W/m2
09:27 60.4 °F 53.6 °F 29.7 in Calm   2 mph 78% 0 in 411 W/m2
09:32 60.8 °F 54 °F 29.7 in North 0.9 mph 1 mph 78% 0 in 466 W/m2
09:37 61.2 °F 54 °F 29.7 in West 2 mph 3 mph 77% 0 in 397 W/m2
09:42 61.3 °F 54.1 °F 29.7 in NW 0.9 mph 3 mph 77% 0 in 91 W/m2
09:47 61.9 °F 53.8 °F 29.7 in Calm   2 mph 75% 0 in 139 W/m2
09:52 62.2 °F 54.5 °F 29.7 in NNW 0.9 mph 3 mph 76% 0 in 512 W/m2
09:57 63 °F 54.9 °F 29.7 in NE 0.9 mph 2 mph 75% 0 in 534 W/m2
10:02 63.9 °F 55.4 °F 29.7 in ESE 0.9 mph 2 mph 74% 0 in 533 W/m2
10:07 64.8 °F 55.6 °F 29.7 in ENE 2.9 mph 3 mph 72% 0 in 608 W/m2
10:12 65.5 °F 56.3 °F 29.7 in Calm   2 mph 72% 0 in 606 W/m2
10:17 66.4 °F 57 °F 29.7 in WNW 2 mph 4 mph 72% 0 in 629 W/m2
10:22 67.5 °F 57.4 °F 29.7 in NW 4 mph 4 mph 70% 0 in 657 W/m2
10:27 68.5 °F 57.2 °F 29.7 in WSW 0.9 mph 2 mph 67% 0 in 524 W/m2
10:32 69.6 °F 56.8 °F 29.7 in NE 0.9 mph 4 mph 64% 0 in 468 W/m2
10:37 70.5 °F 55.6 °F 29.7 in ENE 4 mph 6 mph 59% 0 in 322 W/m2
10:42 71.2 °F 54.7 °F 29.7 in East 11 mph 11 mph 56% 0 in 619 W/m2
10:47 71.8 °F 55.2 °F 29.7 in NNE 2 mph 2 mph 56% 0 in 657 W/m2
10:52 72.7 °F 55.6 °F 29.7 in NE 0.9 mph 8 mph 55% 0 in 754 W/m2
10:57 73 °F 54.9 °F 29.7 in East 2 mph 5 mph 53% 0 in 635 W/m2
11:02 73.4 °F 54.7 °F 29.7 in East 2.9 mph 4 mph 52% 0 in 650 W/m2
11:07 73.8 °F 55 °F 29.7 in ESE 6 mph 11 mph 52% 0 in 740 W/m2
11:12 74.1 °F 55.9 °F 29.7 in East 4.9 mph 5 mph 53% 0 in 418 W/m2
11:17 74.5 °F 55.8 °F 29.7 in ENE 6 mph 8 mph 52% 0 in 775 W/m2
11:22 74.7 °F 55.4 °F 29.7 in ENE 4.9 mph 5 mph 51% 0 in 710 W/m2
11:27 75 °F 55.6 °F 29.7 in SSW 2 mph 7 mph 51% 0 in 733 W/m2
11:32 75.2 °F 55.8 °F 29.7 in North 4.9 mph 8 mph 51% 0 in 784 W/m2
11:37 75.6 °F 55.6 °F 29.7 in ESE 2 mph 5 mph 50% 0 in 802 W/m2
11:42 75.9 °F 55.4 °F 29.7 in ENE 6 mph 6 mph 49% 0 in 756 W/m2
11:47 76.3 °F 55.8 °F 29.7 in ENE 4 mph 9 mph 49% 0 in 744 W/m2
11:52 76.3 °F 54.5 °F 29.7 in South 4 mph 8 mph 47% 0 in 721 W/m2
11:57 76.1 °F 55 °F 29.7 in NE 2.9 mph 6 mph 48% 0 in 701 W/m2
12:02 76.3 °F 54.5 °F 29.7 in NNW 8.9 mph 10 mph 47% 0 in 914 W/m2
12:07 75.9 °F 54.3 °F 29.7 in NW 0.9 mph 11 mph 47% 0 in 529 W/m2
12:12 75.7 °F 53.4 °F 29.7 in NNW 4.9 mph 9 mph 46% 0 in 552 W/m2
12:17 75.6 °F 54 °F 29.7 in NE 4.9 mph 9 mph 47% 0 in 670 W/m2
12:22 75.4 °F 54.3 °F 29.7 in NW 4.9 mph 6 mph 48% 0 in 621 W/m2
12:27 75.6 °F 54.5 °F 29.7 in WNW 8.9 mph 12 mph 48% 0 in 403 W/m2
12:32 75.2 °F 54.1 °F 29.7 in NNW 0.9 mph 10 mph 48% 0 in 346 W/m2
12:37 75 °F 54.5 °F 29.7 in North 2.9 mph 16 mph 49% 0 in 418 W/m2
12:42 75 °F 54 °F 29.7 in ENE 2.9 mph 5 mph 48% 0 in 591 W/m2
12:47 75.6 °F 54.5 °F 29.7 in WNW 2.9 mph 7 mph 48% 0 in 896 W/m2
12:52 75.9 °F 56.5 °F 29.7 in NW 2 mph 4 mph 51% 0 in 905 W/m2
13:02 76.8 °F 55 °F 29.7 in NW 2.9 mph 8 mph 47% 0 in 786 W/m2
Juneau County Weather
Compliments of Weather Underground - 4 mb